createdAt,value
2018-06-24T00:02:11.704Z,99128.62
2018-06-24T00:04:40.191Z,99135.34
2018-06-24T00:07:09.023Z,99138.67
2018-06-24T00:09:37.475Z,99138.90
2018-06-24T00:12:05.985Z,99139.63
2018-06-24T00:14:34.415Z,99138.78
2018-06-24T00:17:03.149Z,99140.97
2018-06-24T00:19:31.627Z,99132.19
2018-06-24T00:22:00.072Z,99130.11
2018-06-24T00:24:28.546Z,99129.00
2018-06-24T00:26:57.050Z,99125.63
2018-06-24T00:29:25.527Z,99124.16
2018-06-24T00:31:54.189Z,99121.36
2018-06-24T00:34:22.719Z,99115.67
2018-06-24T00:36:51.148Z,99110.56
2018-06-24T00:39:19.658Z,99108.75
2018-06-24T00:41:48.113Z,99111.29
2018-06-24T00:44:16.636Z,99111.29
2018-06-24T00:46:45.122Z,99113.88
2018-06-24T00:49:13.734Z,99115.34
2018-06-24T00:51:42.138Z,99107.99
2018-06-24T00:54:10.734Z,99112.55
2018-06-24T00:56:39.234Z,99110.61
2018-06-24T00:59:08.402Z,99114.66
2018-06-24T01:01:37.049Z,99106.49
2018-06-24T01:04:05.526Z,99103.57
2018-06-24T01:06:33.989Z,99097.80
2018-06-24T01:09:02.485Z,99101.97
2018-06-24T01:11:30.968Z,99100.86
2018-06-24T01:13:59.480Z,99096.22
2018-06-24T01:16:28.051Z,99096.48
2018-06-24T01:18:56.588Z,99096.63
2018-06-24T01:21:25.071Z,99091.02
2018-06-24T01:23:53.551Z,99095.20
2018-06-24T01:26:22.015Z,99092.66
2018-06-24T01:28:50.503Z,99098.50
2018-06-24T01:31:19.098Z,99092.18
2018-06-24T01:33:47.771Z,99096.95
2018-06-24T01:36:16.289Z,99094.28
2018-06-24T01:38:44.782Z,99085.14
2018-06-24T01:41:13.238Z,99084.64
2018-06-24T01:43:41.706Z,99094.28
2018-06-24T01:46:10.182Z,99085.63
2018-06-24T01:48:38.653Z,99087.09
2018-06-24T01:51:07.134Z,99081.02
2018-06-24T01:53:35.638Z,99080.05
2018-06-24T02:02:43.144Z,99077.57
2018-06-24T02:05:11.622Z,99080.25
2018-06-24T02:07:44.966Z,99082.19
2018-06-24T02:10:13.585Z,99076.02
2018-06-24T02:12:42.058Z,99074.81
2018-06-24T02:15:10.498Z,99077.23
2018-06-24T02:17:38.966Z,99074.70
2018-06-24T02:20:07.526Z,99078.45
2018-06-24T02:22:36.071Z,99074.43
2018-06-24T02:25:04.576Z,99077.33
2018-06-24T02:27:33.010Z,99072.22
2018-06-24T02:30:01.459Z,99068.70
2018-06-24T02:32:29.996Z,99069.79
2018-06-24T02:34:58.427Z,99066.38
2018-06-24T02:37:26.953Z,99058.20
2018-06-24T02:39:55.422Z,99059.18
2018-06-24T02:42:23.944Z,99066.62
2018-06-24T02:44:52.366Z,99062.95
2018-06-24T02:47:20.834Z,99065.98
2018-06-24T02:49:49.422Z,99062.81
2018-06-24T02:52:18.272Z,99060.00
2018-06-24T02:54:46.819Z,99063.91
2018-06-24T02:57:15.306Z,99062.92
2018-06-24T02:59:43.746Z,99056.83
2018-06-24T03:02:12.272Z,99062.42
2018-06-24T03:04:40.707Z,99061.19
2018-06-24T03:07:09.300Z,99060.48
2018-06-24T03:09:38.020Z,99057.20
2018-06-24T03:12:06.522Z,99061.58
2018-06-24T03:14:34.995Z,99054.77
2018-06-24T03:17:03.426Z,99062.81
2018-06-24T03:19:32.058Z,99063.41
2018-06-24T03:22:00.490Z,99062.81
2018-06-24T03:24:29.006Z,99059.29
2018-06-24T03:26:57.455Z,99065.63
2018-06-24T03:29:26.143Z,99059.29
2018-06-24T03:31:54.808Z,99057.84
2018-06-24T03:34:23.321Z,99058.55
2018-06-24T03:36:51.807Z,99056.37
2018-06-24T03:39:20.469Z,99053.58
2018-06-24T03:41:48.962Z,99057.32
2018-06-24T03:44:17.512Z,99052.70
2018-06-24T03:46:45.951Z,99056.12
2018-06-24T03:49:14.466Z,99055.13
2018-06-24T03:51:42.966Z,99053.58
2018-06-24T03:54:11.386Z,99057.46
2018-06-24T03:56:39.834Z,99056.26
2018-06-24T03:59:08.302Z,99061.38
2018-06-24T04:01:36.758Z,99063.45
2018-06-24T04:04:05.267Z,99062.11
2018-06-24T04:06:33.958Z,99068.20
2018-06-24T04:09:02.475Z,99072.81
2018-06-24T04:11:30.987Z,99071.14
2018-06-24T04:13:59.447Z,99067.36
2018-06-24T04:16:27.921Z,99070.77
2018-06-24T04:18:56.430Z,99072.36
2018-06-24T04:21:24.854Z,99074.17
2018-06-24T04:23:53.264Z,99063.19
2018-06-24T04:26:21.911Z,99075.00
2018-06-24T04:28:50.477Z,99065.58
2018-06-24T04:31:18.893Z,99063.39
2018-06-24T04:33:47.403Z,99066.30
2018-06-24T04:36:15.854Z,99068.61
2018-06-24T04:38:44.405Z,99075.30
2018-06-24T04:41:12.825Z,99069.27
2018-06-24T04:43:41.455Z,99065.95
2018-06-24T04:46:09.902Z,99071.60
2018-06-24T04:48:38.378Z,99077.63
2018-06-24T04:51:06.931Z,99082.66
2018-06-24T04:53:35.330Z,99088.11
2018-06-24T04:56:03.845Z,99080.81
2018-06-24T04:58:32.437Z,99083.80
2018-06-24T05:01:01.169Z,99078.27
2018-06-24T05:03:29.567Z,99080.03
2018-06-24T05:05:58.234Z,99081.89
2018-06-24T05:08:26.634Z,99088.02
2018-06-24T05:10:55.122Z,99082.86
2018-06-24T05:13:23.602Z,99091.20
2018-06-24T05:15:52.327Z,99085.98
2018-06-24T05:18:20.771Z,99091.12
2018-06-24T05:20:49.550Z,99089.38
2018-06-24T05:23:18.216Z,99087.75
2018-06-24T05:25:47.059Z,99085.78
2018-06-24T05:28:15.503Z,99092.22
2018-06-24T05:30:44.006Z,99090.33
2018-06-24T05:33:12.725Z,99078.14
2018-06-24T05:35:41.252Z,99077.65
2018-06-24T05:38:10.061Z,99087.73
2018-06-24T05:40:38.947Z,99075.67
2018-06-24T05:43:07.838Z,99076.83
2018-06-24T05:45:36.562Z,99076.53
2018-06-24T05:48:05.858Z,99079.86
2018-06-24T05:50:34.428Z,99077.66
2018-06-24T05:53:03.250Z,99080.28
2018-06-24T05:55:31.880Z,99077.66
2018-06-24T05:58:00.581Z,99080.70
2018-06-24T06:00:29.126Z,99077.92
2018-06-24T06:02:57.589Z,99080.86
2018-06-24T06:05:26.002Z,99074.67
2018-06-24T06:07:54.522Z,99076.88
2018-06-24T06:10:23.145Z,99083.31
2018-06-24T06:12:51.489Z,99076.64
2018-06-24T06:15:19.966Z,99079.47
2018-06-24T06:17:48.491Z,99072.52
2018-06-24T06:20:17.168Z,99076.72
2018-06-24T06:22:45.642Z,99079.48
2018-06-24T06:25:14.117Z,99076.10
2018-06-24T06:27:42.574Z,99074.25
2018-06-24T06:30:11.324Z,99077.43
2018-06-24T06:32:39.747Z,99083.42
2018-06-24T06:35:08.298Z,99080.80
2018-06-24T06:37:36.960Z,99084.65
2018-06-24T06:40:05.577Z,99084.36
2018-06-24T06:42:34.089Z,99083.62
2018-06-24T06:45:02.738Z,99091.55
2018-06-24T06:47:31.135Z,99089.47
2018-06-24T06:49:59.778Z,99083.45
2018-06-24T06:52:28.433Z,99087.91
2018-06-24T06:54:56.913Z,99087.37
2018-06-24T06:57:25.395Z,99084.58
2018-06-24T06:59:53.834Z,99091.51
2018-06-24T07:02:22.320Z,99089.64
2018-06-24T07:04:50.779Z,99089.74
2018-06-24T07:07:19.347Z,99091.75
2018-06-24T07:09:47.785Z,99095.65
2018-06-24T07:12:16.274Z,99095.17
2018-06-24T07:14:44.876Z,99096.52
2018-06-24T07:17:13.526Z,99088.64
2018-06-24T07:19:42.126Z,99092.34
2018-06-24T07:22:10.623Z,99091.91
2018-06-24T07:24:39.083Z,99085.52
2018-06-24T07:27:07.639Z,99093.47
2018-06-24T07:29:36.154Z,99086.34
2018-06-24T07:32:04.615Z,99085.63
2018-06-24T07:34:33.110Z,99078.28
2018-06-24T07:37:01.656Z,99083.19
2018-06-24T07:39:30.212Z,99081.92
2018-06-24T07:41:58.619Z,99075.55
2018-06-24T07:44:27.028Z,99076.98
2018-06-24T07:46:55.506Z,99080.20
2018-06-24T07:49:24.032Z,99072.05
2018-06-24T07:51:52.566Z,99070.34
2018-06-24T07:54:21.050Z,99067.12
2018-06-24T07:56:49.620Z,99069.67
2018-06-24T07:59:18.190Z,99071.55
2018-06-24T08:01:46.731Z,99064.42
2018-06-24T08:04:15.212Z,99064.59
2018-06-24T08:06:43.659Z,99063.23
2018-06-24T08:09:12.919Z,99068.83
2018-06-24T08:11:42.196Z,99063.91
2018-06-24T08:14:41.622Z,99059.77
2018-06-24T08:17:10.214Z,99064.14
2018-06-24T08:19:38.754Z,99058.81
2018-06-24T08:22:07.190Z,99059.75
2018-06-24T08:24:35.763Z,99057.47
2018-06-24T08:27:04.361Z,99056.67
2018-06-24T08:29:32.884Z,99052.16
2018-06-24T08:32:05.495Z,99047.69
2018-06-24T08:34:33.963Z,99042.52
2018-06-24T08:37:02.382Z,99040.16
2018-06-24T08:39:30.877Z,99036.78
2018-06-24T08:41:59.349Z,99040.25
2018-06-24T08:44:27.835Z,99042.36
2018-06-24T08:46:56.332Z,99036.05
2018-06-24T08:49:24.945Z,99044.05
2018-06-24T08:51:53.402Z,99040.50
2018-06-24T08:54:21.858Z,99037.62
2018-06-24T08:56:50.588Z,99040.02
2018-06-24T08:59:19.084Z,99040.17
2018-06-24T09:01:47.540Z,99039.20
2018-06-24T09:04:16.047Z,99045.78
2018-06-24T09:06:45.432Z,99046.92
2018-06-24T09:09:13.886Z,99045.56
2018-06-24T09:11:42.347Z,99054.52
2018-06-24T09:14:10.892Z,99044.70
2018-06-24T09:16:39.430Z,99049.48
2018-06-24T09:19:07.998Z,99051.38
2018-06-24T09:21:36.491Z,99052.06
2018-06-24T09:24:04.971Z,99058.55
2018-06-24T09:26:33.470Z,99063.55
2018-06-24T09:29:01.907Z,99055.70
2018-06-24T09:31:30.410Z,99056.50
2018-06-24T09:33:59.178Z,99052.64
2018-06-24T09:36:27.783Z,99049.30
2018-06-24T09:38:56.357Z,99049.86
2018-06-24T09:41:24.911Z,99039.17
2018-06-24T09:43:54.350Z,99043.61
2018-06-24T09:46:23.069Z,99040.87
2018-06-24T09:48:51.606Z,99044.00
2018-06-24T09:51:20.165Z,99042.98
2018-06-24T09:53:48.875Z,99041.68
2018-06-24T09:56:17.362Z,99042.44
2018-06-24T09:58:45.855Z,99044.52
2018-06-24T10:01:14.352Z,99039.67
2018-06-24T10:03:42.866Z,99037.86
2018-06-24T10:06:11.270Z,99043.88
2018-06-24T10:08:39.980Z,99041.16
2018-06-24T10:11:08.597Z,99041.44
2018-06-24T10:13:37.101Z,99032.51
2018-06-24T10:16:05.535Z,99022.49
2018-06-24T10:18:34.091Z,99029.27
2018-06-24T10:21:02.759Z,99031.21
2018-06-24T10:23:31.186Z,99031.43
2018-06-24T10:25:59.681Z,99026.44
2018-06-24T10:28:28.205Z,99027.92
2018-06-24T10:30:56.681Z,99027.45
2018-06-24T10:33:25.176Z,99018.90
2018-06-24T10:35:54.620Z,99015.36
2018-06-24T10:38:23.395Z,99017.20
2018-06-24T10:40:52.052Z,99008.52
2018-06-24T10:43:20.519Z,99000.57
2018-06-24T10:45:52.388Z,99015.91
2018-06-24T10:48:20.839Z,99007.16
2018-06-24T10:50:49.434Z,99012.08
2018-06-24T10:53:18.019Z,99013.03
2018-06-24T10:55:46.510Z,99010.27
2018-06-24T10:58:14.991Z,99004.31
2018-06-24T11:00:43.638Z,99007.95
2018-06-24T11:03:12.101Z,99004.76
2018-06-24T11:05:40.650Z,99001.66
2018-06-24T11:08:09.098Z,99006.20
2018-06-24T11:10:37.579Z,98998.17
2018-06-24T11:13:06.301Z,98992.31
2018-06-24T11:15:34.807Z,98993.36
2018-06-24T11:18:03.594Z,98991.72
2018-06-24T11:20:32.137Z,98985.66
2018-06-24T11:23:00.599Z,98983.11
2018-06-24T11:25:29.070Z,98980.18
2018-06-24T11:27:57.683Z,98982.20
2018-06-24T11:30:26.219Z,98980.00
2018-06-24T11:32:54.712Z,98980.78
2018-06-24T11:35:23.149Z,98975.13
2018-06-24T11:37:51.619Z,98977.04
2018-06-24T11:40:20.135Z,98970.13
2018-06-24T11:42:48.720Z,98969.09
2018-06-24T11:45:17.275Z,98962.44
2018-06-24T11:47:45.834Z,98967.72
2018-06-24T11:50:14.286Z,98958.56
2018-06-24T11:52:42.756Z,98962.67
2018-06-24T11:55:11.234Z,98959.67
2018-06-24T11:57:39.687Z,98949.87
2018-06-24T12:00:08.233Z,98957.45
2018-06-24T12:02:36.690Z,98957.25
2018-06-24T12:05:05.221Z,98950.53
2018-06-24T12:07:33.795Z,98947.63
2018-06-24T12:10:02.248Z,98950.08
2018-06-24T12:12:30.665Z,98951.09
2018-06-24T12:14:59.211Z,98951.80
2018-06-24T12:17:27.900Z,98952.64
2018-06-24T12:19:56.238Z,98949.87
2018-06-24T12:22:24.815Z,98941.56
2018-06-24T12:24:53.327Z,98945.67
2018-06-24T12:27:21.752Z,98931.45
2018-06-24T12:29:50.374Z,98929.23
2018-06-24T12:32:18.919Z,98928.89
2018-06-24T12:34:47.476Z,98920.67
2018-06-24T12:37:15.918Z,98925.38
2018-06-24T12:39:44.409Z,98917.50
2018-06-24T12:42:12.906Z,98912.47
2018-06-24T12:44:41.358Z,98908.81
2018-06-24T12:47:09.815Z,98903.64
2018-06-24T12:49:38.319Z,98912.62
2018-06-24T12:52:06.770Z,98916.16
2018-06-24T12:54:35.402Z,98918.24
2018-06-24T12:57:03.841Z,98912.02
2018-06-24T12:59:32.607Z,98913.16
2018-06-24T13:02:01.365Z,98904.58
2018-06-24T13:04:29.785Z,98906.44
2018-06-24T13:06:58.384Z,98906.23
2018-06-24T13:09:26.822Z,98903.70
2018-06-24T13:11:55.378Z,98904.47
2018-06-24T13:14:23.785Z,98901.32
2018-06-24T13:16:52.693Z,98901.48
2018-06-24T13:19:21.244Z,98901.28
2018-06-24T13:21:49.782Z,98895.45
2018-06-24T13:24:18.273Z,98896.54
2018-06-24T13:26:46.961Z,98888.73
2018-06-24T13:29:15.506Z,98889.19
2018-06-24T13:31:44.113Z,98890.33
2018-06-24T13:34:12.684Z,98878.30
2018-06-24T13:36:41.207Z,98888.80
2018-06-24T13:39:10.750Z,98883.58
2018-06-24T13:41:39.448Z,98888.19
2018-06-24T13:44:08.522Z,98885.64
2018-06-24T13:46:37.899Z,98881.36
2018-06-24T13:49:06.391Z,98880.48
2018-06-24T13:51:34.873Z,98878.95
2018-06-24T13:54:03.495Z,98882.45
2018-06-24T13:56:32.036Z,98880.98
2018-06-24T13:59:00.502Z,98876.91
2018-06-24T14:01:29.194Z,98875.17
2018-06-24T14:03:57.896Z,98870.97
2018-06-24T14:06:26.345Z,98871.69
2018-06-24T14:08:54.831Z,98861.99
2018-06-24T14:11:23.367Z,98861.89
2018-06-24T14:13:51.750Z,98859.75
2018-06-24T14:16:20.338Z,98862.57
2018-06-24T14:18:48.838Z,98869.32
2018-06-24T14:21:17.483Z,98870.80
2018-06-24T14:23:46.021Z,98856.22
2018-06-24T14:26:14.694Z,98863.23
2018-06-24T14:28:43.166Z,98862.17
2018-06-24T14:31:11.659Z,98857.58
2018-06-24T14:33:40.156Z,98856.28
2018-06-24T14:36:08.683Z,98843.11
2018-06-24T14:38:37.246Z,98850.73
2018-06-24T14:41:05.739Z,98851.70
2018-06-24T14:43:34.181Z,98850.95
2018-06-24T14:46:02.635Z,98849.61
2018-06-24T14:48:31.125Z,98841.03
2018-06-24T14:50:59.632Z,98841.27
2018-06-24T14:53:28.213Z,98842.37
2018-06-24T14:55:56.708Z,98853.43
2018-06-24T14:58:25.322Z,98843.30
2018-06-24T15:00:53.776Z,98837.69
2018-06-24T15:03:22.310Z,98844.86
2018-06-24T15:05:50.863Z,98849.44
2018-06-24T15:08:19.406Z,98848.53
2018-06-24T15:10:47.822Z,98839.58
2018-06-24T15:13:16.318Z,98831.50
2018-06-24T15:15:44.897Z,98831.27
2018-06-24T15:18:13.356Z,98828.03
2018-06-24T15:20:42.107Z,98818.61
2018-06-24T15:23:10.628Z,98813.98
2018-06-24T15:25:39.198Z,98814.97
2018-06-24T15:28:07.661Z,98811.35
2018-06-24T15:30:36.198Z,98818.12
2018-06-24T15:33:04.709Z,98819.11
2018-06-24T15:35:33.196Z,98818.22
2018-06-24T15:38:01.992Z,98813.13
2018-06-24T15:40:30.588Z,98818.63
2018-06-24T15:42:59.131Z,98803.98
2018-06-24T15:45:27.808Z,98805.10
2018-06-24T15:47:56.306Z,98806.75
2018-06-24T15:50:24.785Z,98804.01
2018-06-24T15:52:53.227Z,98795.48
2018-06-24T15:55:21.760Z,98788.47
2018-06-24T15:57:50.284Z,98786.49
2018-06-24T16:00:18.848Z,98794.68
2018-06-24T16:02:47.514Z,98797.83
2018-06-24T16:05:16.127Z,98798.23
2018-06-24T16:07:44.686Z,98810.27
2018-06-24T16:10:13.286Z,98807.37
2018-06-24T16:12:41.775Z,98805.55
2018-06-24T16:15:10.755Z,98803.12
2018-06-24T16:17:39.302Z,98796.95
2018-06-24T16:20:07.798Z,98798.38
2018-06-24T16:22:37.784Z,98806.78
2018-06-24T16:25:06.542Z,98798.00
2018-06-24T16:27:35.039Z,98798.42
2018-06-24T16:30:03.679Z,98791.47
2018-06-24T16:32:32.134Z,98803.23
2018-06-24T16:35:00.679Z,98799.39
2018-06-24T16:37:29.223Z,98780.36
2018-06-24T16:39:57.677Z,98788.74
2018-06-24T16:42:26.183Z,98791.91
2018-06-24T16:44:54.770Z,98794.11
2018-06-24T16:47:23.210Z,98796.37
2018-06-24T16:49:51.676Z,98799.42
2018-06-24T16:52:20.190Z,98802.25
2018-06-24T16:54:48.698Z,98794.48
2018-06-24T16:57:17.383Z,98797.13
2018-06-24T16:59:45.876Z,98801.66
2018-06-24T17:02:14.469Z,98796.81
2018-06-24T17:04:42.975Z,98788.20
2018-06-24T17:07:11.516Z,98787.48
2018-06-24T17:09:39.967Z,98796.30
2018-06-24T17:12:08.439Z,98802.45
2018-06-24T17:14:37.028Z,98801.12
2018-06-24T17:17:05.660Z,98805.22
2018-06-24T17:19:34.218Z,98795.45
2018-06-24T17:22:02.722Z,98801.78
2018-06-24T17:24:31.106Z,98797.88
2018-06-24T17:26:59.668Z,98796.20
2018-06-24T17:29:28.282Z,98801.12
2018-06-24T17:31:56.871Z,98799.98
2018-06-24T17:34:25.529Z,98804.45
2018-06-24T17:36:53.999Z,98805.91
2018-06-24T17:39:22.527Z,98808.34
2018-06-24T17:41:51.082Z,98808.19
2018-06-24T17:44:19.634Z,98807.06
2018-06-24T17:46:48.158Z,98806.66
2018-06-24T17:49:16.759Z,98808.83
2018-06-24T17:51:45.253Z,98808.78
2018-06-24T17:54:13.750Z,98815.43
2018-06-24T17:56:42.279Z,98812.89
2018-06-24T17:59:10.751Z,98818.59
2018-06-24T18:01:39.170Z,98814.31
2018-06-24T18:04:08.186Z,98817.53
2018-06-24T18:06:36.589Z,98816.33
2018-06-24T18:09:08.227Z,98818.19
2018-06-24T18:11:36.988Z,98816.48
2018-06-24T18:14:05.562Z,98815.70
2018-06-24T18:16:34.470Z,98816.94
2018-06-24T18:19:03.179Z,98815.11
2018-06-24T18:21:31.752Z,98820.80
2018-06-24T18:24:00.315Z,98824.59
2018-06-24T18:26:28.822Z,98824.78
2018-06-24T18:28:57.508Z,98815.44
2018-06-24T18:31:25.955Z,98824.02
2018-06-24T18:33:54.720Z,98828.48
2018-06-24T18:36:23.121Z,98829.71
2018-06-24T18:38:51.595Z,98834.14
2018-06-24T18:41:20.267Z,98828.88
2018-06-24T18:43:48.799Z,98832.48
2018-06-24T18:46:17.329Z,98834.00
2018-06-24T18:48:45.923Z,98830.33
2018-06-24T18:51:14.327Z,98839.40
2018-06-24T18:53:42.831Z,98838.69
2018-06-24T18:56:11.312Z,98833.67
2018-06-24T18:58:39.738Z,98829.69
2018-06-24T19:01:08.286Z,98832.17
2018-06-24T19:03:36.791Z,98835.90
2018-06-24T19:06:05.634Z,98841.92
2018-06-24T19:08:34.163Z,98833.53
2018-06-24T19:11:02.614Z,98839.53
2018-06-24T19:13:31.107Z,98831.91
2018-06-24T19:15:59.620Z,98838.39
2018-06-24T19:18:28.173Z,98841.98
2018-06-24T19:20:56.683Z,98844.88
2018-06-24T19:23:29.072Z,98849.99
2018-06-24T19:25:57.710Z,98850.19
2018-06-24T19:28:26.191Z,98849.87
2018-06-24T19:30:54.710Z,98852.27
2018-06-24T19:33:23.293Z,98851.27
2018-06-24T19:35:51.731Z,98854.01
2018-06-24T19:38:20.241Z,98847.94
2018-06-24T19:40:48.851Z,98847.61
2018-06-24T19:43:17.532Z,98854.06
2018-06-24T19:45:45.946Z,98856.28
2018-06-24T19:48:14.455Z,98855.27
2018-06-24T19:50:42.979Z,98861.39
2018-06-24T19:53:11.415Z,98862.91
2018-06-24T19:55:40.160Z,98863.22
2018-06-24T19:58:08.713Z,98865.28
2018-06-24T20:00:37.324Z,98871.01
2018-06-24T20:03:05.841Z,98867.11
2018-06-24T20:05:35.360Z,98868.64
2018-06-24T20:08:03.906Z,98865.25
2018-06-24T20:10:32.416Z,98869.47
2018-06-24T20:13:00.922Z,98864.75
2018-06-24T20:15:29.424Z,98866.60
2018-06-24T20:17:57.960Z,98871.33
2018-06-24T20:20:26.486Z,98873.70
2018-06-24T20:22:55.191Z,98868.62
2018-06-24T20:25:23.853Z,98867.63
2018-06-24T20:27:52.332Z,98871.33
2018-06-24T20:30:20.999Z,98868.13
2018-06-24T20:32:49.450Z,98872.00
2018-06-24T20:35:18.031Z,98873.04
2018-06-24T20:37:46.543Z,98879.64
2018-06-24T20:40:15.061Z,98873.70
2018-06-24T20:42:43.470Z,98869.95
2018-06-24T20:45:12.050Z,98872.16
2018-06-24T20:47:40.572Z,98870.61
2018-06-24T20:50:09.056Z,98872.30
2018-06-24T20:52:37.560Z,98880.06
2018-06-24T20:55:06.097Z,98885.66
2018-06-24T20:57:34.880Z,98887.14
2018-06-24T21:00:03.430Z,98886.97
2018-06-24T21:02:31.966Z,98886.40
2018-06-24T21:05:00.435Z,98890.45
2018-06-24T21:07:28.936Z,98888.09
2018-06-24T21:09:57.382Z,98890.61
2018-06-24T21:12:25.865Z,98900.08
2018-06-24T21:14:54.495Z,98897.86
2018-06-24T21:17:22.966Z,98901.88
2018-06-24T21:19:51.434Z,98905.58
2018-06-24T21:22:20.010Z,98903.53
2018-06-24T21:24:48.648Z,98899.92
2018-06-24T21:27:17.140Z,98902.25
2018-06-24T21:29:45.625Z,98899.66
2018-06-24T21:32:14.057Z,98898.78
2018-06-24T21:34:42.543Z,98901.11
2018-06-24T21:37:11.068Z,98900.59
2018-06-24T21:39:39.554Z,98905.95
2018-06-24T21:42:08.327Z,98901.20
2018-06-24T21:44:36.867Z,98905.86
2018-06-24T21:47:05.370Z,98900.92
2018-06-24T21:49:33.821Z,98897.81
2018-06-24T21:52:02.328Z,98889.66
2018-06-24T21:54:30.767Z,98893.52
2018-06-24T21:56:59.331Z,98885.73
2018-06-24T21:59:27.734Z,98879.31
2018-06-24T22:01:56.200Z,98886.34
2018-06-24T22:04:28.366Z,98886.28
2018-06-24T22:06:56.834Z,98891.03
2018-06-24T22:09:25.305Z,98886.60
2018-06-24T22:11:53.702Z,98893.93
2018-06-24T22:14:22.204Z,98888.15
2018-06-24T22:16:50.728Z,98890.80
2018-06-24T22:19:20.422Z,98894.17
2018-06-24T22:21:48.876Z,98892.63
2018-06-24T22:24:17.664Z,98893.78
2018-06-24T22:26:46.161Z,98905.22
2018-06-24T22:29:14.611Z,98899.78
2018-06-24T22:31:43.102Z,98899.55
2018-06-24T22:34:11.615Z,98902.34
2018-06-24T22:36:40.214Z,98902.11
2018-06-24T22:39:10.958Z,98898.52
2018-06-24T22:41:39.443Z,98896.72
2018-06-24T22:44:08.003Z,98903.56
2018-06-24T22:46:36.742Z,98901.59
2018-06-24T22:49:09.851Z,98908.33
2018-06-24T22:51:38.303Z,98901.05
2018-06-24T22:54:06.843Z,98903.88
2018-06-24T22:56:35.267Z,98905.20
2018-06-24T22:59:14.890Z,98903.14
2018-06-24T23:01:43.392Z,98908.20
2018-06-24T23:04:11.910Z,98909.95
2018-06-24T23:06:40.354Z,98914.09
2018-06-24T23:09:09.417Z,98913.91
2018-06-24T23:11:37.982Z,98917.00
2018-06-24T23:14:06.478Z,98911.27
2018-06-24T23:16:35.079Z,98916.36
2018-06-24T23:19:03.821Z,98919.25
2018-06-24T23:21:32.237Z,98920.59
2018-06-24T23:24:00.691Z,98924.47
2018-06-24T23:26:29.100Z,98921.50
2018-06-24T23:28:57.894Z,98921.97
2018-06-24T23:31:26.426Z,98926.22
2018-06-24T23:33:55.939Z,98922.23
2018-06-24T23:36:24.411Z,98926.36
2018-06-24T23:38:52.887Z,98921.35
2018-06-24T23:41:21.320Z,98927.45
2018-06-24T23:43:49.838Z,98928.16
2018-06-24T23:46:18.315Z,98928.66
2018-06-24T23:48:46.814Z,98933.86
2018-06-24T23:51:15.410Z,98929.76
2018-06-24T23:53:43.850Z,98920.23
2018-06-24T23:56:12.350Z,98924.28
2018-06-24T23:58:40.811Z,98932.31
